sensor_id;sensor_type;location;lat;lon;timestamp;P1;durP1;ratioP1;P2;durP2;ratioP2
84931;SDS011;75193;53.980;13.902;2024-03-22T00:02:15;16.63;;;7.57;;
84931;SDS011;75193;53.980;13.902;2024-03-22T00:04:41;18.92;;;8.82;;
84931;SDS011;75193;53.980;13.902;2024-03-22T00:07:06;20.45;;;7.80;;
84931;SDS011;75193;53.980;13.902;2024-03-22T00:09:32;18.75;;;8.27;;
84931;SDS011;75193;53.980;13.902;2024-03-22T00:11:57;18.02;;;8.48;;
84931;SDS011;75193;53.980;13.902;2024-03-22T00:14:23;17.27;;;8.15;;
84931;SDS011;75193;53.980;13.902;2024-03-22T00:16:48;18.65;;;7.90;;
84931;SDS011;75193;53.980;13.902;2024-03-22T00:19:14;17.75;;;7.35;;
84931;SDS011;75193;53.980;13.902;2024-03-22T00:21:39;17.35;;;8.82;;
84931;SDS011;75193;53.980;13.902;2024-03-22T00:24:05;20.02;;;8.80;;
84931;SDS011;75193;53.980;13.902;2024-03-22T00:26:30;18.15;;;8.50;;
84931;SDS011;75193;53.980;13.902;2024-03-22T00:28:56;18.17;;;7.72;;
84931;SDS011;75193;53.980;13.902;2024-03-22T00:31:23;19.83;;;7.97;;
84931;SDS011;75193;53.980;13.902;2024-03-22T00:33:49;19.27;;;8.65;;
84931;SDS011;75193;53.980;13.902;2024-03-22T00:36:14;18.13;;;8.70;;
84931;SDS011;75193;53.980;13.902;2024-03-22T00:38:40;19.42;;;8.43;;
84931;SDS011;75193;53.980;13.902;2024-03-22T00:41:05;18.90;;;8.73;;
84931;SDS011;75193;53.980;13.902;2024-03-22T00:43:31;19.80;;;9.48;;
84931;SDS011;75193;53.980;13.902;2024-03-22T00:45:57;14.73;;;7.38;;
84931;SDS011;75193;53.980;13.902;2024-03-22T00:48:23;21.38;;;10.30;;
84931;SDS011;75193;53.980;13.902;2024-03-22T00:50:49;21.92;;;8.88;;
84931;SDS011;75193;53.980;13.902;2024-03-22T00:53:14;17.98;;;8.32;;
84931;SDS011;75193;53.980;13.902;2024-03-22T00:55:40;20.60;;;9.32;;
84931;SDS011;75193;53.980;13.902;2024-03-22T00:58:05;16.38;;;7.25;;
84931;SDS011;75193;53.980;13.902;2024-03-22T01:00:31;21.70;;;9.48;;
84931;SDS011;75193;53.980;13.902;2024-03-22T01:02:56;21.00;;;9.23;;
84931;SDS011;75193;53.980;13.902;2024-03-22T01:05:22;15.48;;;7.38;;
84931;SDS011;75193;53.980;13.902;2024-03-22T01:07:47;18.75;;;9.25;;
84931;SDS011;75193;53.980;13.902;2024-03-22T01:10:13;17.50;;;8.85;;
84931;SDS011;75193;53.980;13.902;2024-03-22T01:12:38;21.02;;;9.88;;
84931;SDS011;75193;53.980;13.902;2024-03-22T01:17:31;18.08;;;9.25;;
84931;SDS011;75193;53.980;13.902;2024-03-22T01:19:56;20.35;;;9.00;;
84931;SDS011;75193;53.980;13.902;2024-03-22T01:22:22;18.95;;;7.72;;
84931;SDS011;75193;53.980;13.902;2024-03-22T01:27:13;17.55;;;8.15;;
84931;SDS011;75193;53.980;13.902;2024-03-22T01:29:39;17.75;;;8.52;;
84931;SDS011;75193;53.980;13.902;2024-03-22T01:32:04;20.70;;;10.07;;
84931;SDS011;75193;53.980;13.902;2024-03-22T01:34:30;20.17;;;9.05;;
84931;SDS011;75193;53.980;13.902;2024-03-22T01:36:55;17.85;;;8.63;;
84931;SDS011;75193;53.980;13.902;2024-03-22T01:39:21;16.02;;;8.35;;
84931;SDS011;75193;53.980;13.902;2024-03-22T01:41:47;21.05;;;10.02;;
84931;SDS011;75193;53.980;13.902;2024-03-22T01:44:13;17.38;;;8.82;;
84931;SDS011;75193;53.980;13.902;2024-03-22T01:49:04;19.02;;;7.78;;
84931;SDS011;75193;53.980;13.902;2024-03-22T01:51:30;18.48;;;8.70;;
84931;SDS011;75193;53.980;13.902;2024-03-22T01:53:55;20.10;;;9.02;;
84931;SDS011;75193;53.980;13.902;2024-03-22T01:56:24;16.23;;;8.00;;
84931;SDS011;75193;53.980;13.902;2024-03-22T01:58:49;19.52;;;8.48;;
84931;SDS011;75193;53.980;13.902;2024-03-22T02:01:15;20.20;;;8.70;;
84931;SDS011;75193;53.980;13.902;2024-03-22T02:03:41;16.58;;;8.57;;
84931;SDS011;75193;53.980;13.902;2024-03-22T02:06:06;17.05;;;9.05;;
84931;SDS011;75193;53.980;13.902;2024-03-22T02:08:32;20.58;;;9.45;;
84931;SDS011;75193;53.980;13.902;2024-03-22T02:10:57;17.92;;;9.10;;
84931;SDS011;75193;53.980;13.902;2024-03-22T02:13:23;20.13;;;9.20;;
84931;SDS011;75193;53.980;13.902;2024-03-22T02:15:48;20.05;;;8.93;;
84931;SDS011;75193;53.980;13.902;2024-03-22T02:18:15;15.70;;;7.82;;
84931;SDS011;75193;53.980;13.902;2024-03-22T02:20:40;18.90;;;9.30;;
84931;SDS011;75193;53.980;13.902;2024-03-22T02:23:06;18.65;;;9.00;;
84931;SDS011;75193;53.980;13.902;2024-03-22T02:25:31;18.50;;;9.02;;
84931;SDS011;75193;53.980;13.902;2024-03-22T02:27:56;17.35;;;7.47;;
84931;SDS011;75193;53.980;13.902;2024-03-22T02:30:22;17.50;;;7.57;;
84931;SDS011;75193;53.980;13.902;2024-03-22T02:32:47;19.40;;;8.57;;
84931;SDS011;75193;53.980;13.902;2024-03-22T02:35:12;20.60;;;10.10;;
84931;SDS011;75193;53.980;13.902;2024-03-22T02:37:38;16.88;;;8.05;;
84931;SDS011;75193;53.980;13.902;2024-03-22T02:40:03;14.25;;;7.75;;
84931;SDS011;75193;53.980;13.902;2024-03-22T02:42:29;19.10;;;9.32;;
84931;SDS011;75193;53.980;13.902;2024-03-22T02:44:55;17.50;;;8.30;;
84931;SDS011;75193;53.980;13.902;2024-03-22T02:47:20;16.77;;;9.25;;
84931;SDS011;75193;53.980;13.902;2024-03-22T02:49:46;15.30;;;7.75;;
84931;SDS011;75193;53.980;13.902;2024-03-22T02:52:12;19.00;;;9.35;;
84931;SDS011;75193;53.980;13.902;2024-03-22T02:54:37;16.05;;;8.20;;
84931;SDS011;75193;53.980;13.902;2024-03-22T02:57:02;18.42;;;8.23;;
84931;SDS011;75193;53.980;13.902;2024-03-22T02:59:28;20.58;;;10.05;;
84931;SDS011;75193;53.980;13.902;2024-03-22T03:01:54;19.75;;;9.25;;
84931;SDS011;75193;53.980;13.902;2024-03-22T03:04:19;21.58;;;9.65;;
84931;SDS011;75193;53.980;13.902;2024-03-22T03:06:45;16.23;;;8.18;;
84931;SDS011;75193;53.980;13.902;2024-03-22T03:09:13;21.90;;;10.52;;
84931;SDS011;75193;53.980;13.902;2024-03-22T03:11:39;17.83;;;7.88;;
84931;SDS011;75193;53.980;13.902;2024-03-22T03:16:30;13.57;;;7.05;;
84931;SDS011;75193;53.980;13.902;2024-03-22T03:18:56;18.77;;;8.90;;
84931;SDS011;75193;53.980;13.902;2024-03-22T03:21:21;19.52;;;10.45;;
84931;SDS011;75193;53.980;13.902;2024-03-22T03:23:46;15.52;;;7.95;;
84931;SDS011;75193;53.980;13.902;2024-03-22T03:26:12;20.60;;;8.50;;
84931;SDS011;75193;53.980;13.902;2024-03-22T03:28:38;17.30;;;7.03;;
84931;SDS011;75193;53.980;13.902;2024-03-22T03:31:03;17.27;;;8.93;;
84931;SDS011;75193;53.980;13.902;2024-03-22T03:33:33;18.20;;;8.45;;
84931;SDS011;75193;53.980;13.902;2024-03-22T03:35:58;14.45;;;7.60;;
84931;SDS011;75193;53.980;13.902;2024-03-22T03:38:24;15.77;;;8.07;;
84931;SDS011;75193;53.980;13.902;2024-03-22T03:40:49;13.93;;;6.47;;
84931;SDS011;75193;53.980;13.902;2024-03-22T03:43:15;14.25;;;7.80;;
84931;SDS011;75193;53.980;13.902;2024-03-22T03:45:40;18.20;;;8.10;;
84931;SDS011;75193;53.980;13.902;2024-03-22T03:48:05;16.58;;;8.60;;
84931;SDS011;75193;53.980;13.902;2024-03-22T03:50:31;17.10;;;7.22;;
84931;SDS011;75193;53.980;13.902;2024-03-22T03:52:57;22.13;;;8.40;;
84931;SDS011;75193;53.980;13.902;2024-03-22T03:55:22;17.60;;;8.20;;
84931;SDS011;75193;53.980;13.902;2024-03-22T03:57:51;21.48;;;8.93;;
84931;SDS011;75193;53.980;13.902;2024-03-22T04:00:18;18.25;;;8.50;;
84931;SDS011;75193;53.980;13.902;2024-03-22T04:02:44;14.18;;;7.18;;
84931;SDS011;75193;53.980;13.902;2024-03-22T04:05:10;18.52;;;8.27;;
84931;SDS011;75193;53.980;13.902;2024-03-22T04:07:35;18.27;;;7.82;;
84931;SDS011;75193;53.980;13.902;2024-03-22T04:10:01;15.68;;;8.43;;
84931;SDS011;75193;53.980;13.902;2024-03-22T04:12:27;15.40;;;7.40;;
84931;SDS011;75193;53.980;13.902;2024-03-22T04:14:54;15.18;;;7.13;;
84931;SDS011;75193;53.980;13.902;2024-03-22T04:17:19;13.32;;;7.65;;
84931;SDS011;75193;53.980;13.902;2024-03-22T04:19:45;14.45;;;7.57;;
84931;SDS011;75193;53.980;13.902;2024-03-22T04:22:10;16.65;;;8.32;;
84931;SDS011;75193;53.980;13.902;2024-03-22T04:24:36;15.75;;;7.53;;
84931;SDS011;75193;53.980;13.902;2024-03-22T04:27:01;15.73;;;7.57;;
84931;SDS011;75193;53.980;13.902;2024-03-22T04:29:27;11.68;;;7.07;;
84931;SDS011;75193;53.980;13.902;2024-03-22T04:31:52;14.73;;;7.25;;
84931;SDS011;75193;53.980;13.902;2024-03-22T04:34:18;14.95;;;7.75;;
84931;SDS011;75193;53.980;13.902;2024-03-22T04:36:43;13.43;;;6.78;;
84931;SDS011;75193;53.980;13.902;2024-03-22T04:39:09;14.60;;;7.32;;
84931;SDS011;75193;53.980;13.902;2024-03-22T04:41:37;14.68;;;7.80;;
84931;SDS011;75193;53.980;13.902;2024-03-22T04:44:02;15.60;;;6.57;;
84931;SDS011;75193;53.980;13.902;2024-03-22T04:46:28;14.82;;;7.68;;
84931;SDS011;75193;53.980;13.902;2024-03-22T04:48:54;15.57;;;7.90;;
84931;SDS011;75193;53.980;13.902;2024-03-22T04:51:19;18.00;;;8.23;;
84931;SDS011;75193;53.980;13.902;2024-03-22T04:53:45;15.10;;;7.30;;
84931;SDS011;75193;53.980;13.902;2024-03-22T04:58:36;12.63;;;6.40;;
84931;SDS011;75193;53.980;13.902;2024-03-22T05:01:01;14.77;;;7.85;;
84931;SDS011;75193;53.980;13.902;2024-03-22T05:03:26;15.30;;;6.90;;
84931;SDS011;75193;53.980;13.902;2024-03-22T05:05:52;14.50;;;6.53;;
84931;SDS011;75193;53.980;13.902;2024-03-22T05:10:43;12.52;;;6.90;;
84931;SDS011;75193;53.980;13.902;2024-03-22T05:13:09;15.52;;;7.22;;
84931;SDS011;75193;53.980;13.902;2024-03-22T05:15:34;13.45;;;7.20;;
84931;SDS011;75193;53.980;13.902;2024-03-22T05:18:00;13.48;;;6.93;;
84931;SDS011;75193;53.980;13.902;2024-03-22T05:20:25;13.98;;;7.13;;
84931;SDS011;75193;53.980;13.902;2024-03-22T05:22:51;15.27;;;8.07;;
84931;SDS011;75193;53.980;13.902;2024-03-22T05:25:17;14.73;;;7.05;;
84931;SDS011;75193;53.980;13.902;2024-03-22T05:27:42;14.88;;;7.80;;
84931;SDS011;75193;53.980;13.902;2024-03-22T05:32:34;12.80;;;5.90;;
84931;SDS011;75193;53.980;13.902;2024-03-22T05:35:00;13.85;;;7.45;;
84931;SDS011;75193;53.980;13.902;2024-03-22T05:37:25;12.35;;;7.40;;
84931;SDS011;75193;53.980;13.902;2024-03-22T05:39:52;14.73;;;7.43;;
84931;SDS011;75193;53.980;13.902;2024-03-22T05:42:17;15.25;;;7.70;;
84931;SDS011;75193;53.980;13.902;2024-03-22T05:44:44;13.38;;;7.75;;
84931;SDS011;75193;53.980;13.902;2024-03-22T05:47:10;13.70;;;9.07;;
84931;SDS011;75193;53.980;13.902;2024-03-22T05:49:35;14.95;;;7.85;;
84931;SDS011;75193;53.980;13.902;2024-03-22T05:52:00;17.38;;;7.85;;
84931;SDS011;75193;53.980;13.902;2024-03-22T05:54:26;15.88;;;7.32;;
84931;SDS011;75193;53.980;13.902;2024-03-22T05:56:51;13.63;;;7.40;;
84931;SDS011;75193;53.980;13.902;2024-03-22T05:59:17;12.50;;;7.47;;
84931;SDS011;75193;53.980;13.902;2024-03-22T06:01:42;13.65;;;8.07;;
84931;SDS011;75193;53.980;13.902;2024-03-22T06:04:08;16.35;;;6.95;;
84931;SDS011;75193;53.980;13.902;2024-03-22T06:06:34;16.75;;;8.05;;
84931;SDS011;75193;53.980;13.902;2024-03-22T06:09:00;14.43;;;7.50;;
84931;SDS011;75193;53.980;13.902;2024-03-22T06:11:28;13.45;;;7.30;;
84931;SDS011;75193;53.980;13.902;2024-03-22T06:13:55;15.23;;;7.47;;
84931;SDS011;75193;53.980;13.902;2024-03-22T06:16:20;16.63;;;8.73;;
84931;SDS011;75193;53.980;13.902;2024-03-22T06:18:47;12.98;;;7.45;;
84931;SDS011;75193;53.980;13.902;2024-03-22T06:21:13;14.35;;;7.57;;
84931;SDS011;75193;53.980;13.902;2024-03-22T06:23:39;12.95;;;7.13;;
84931;SDS011;75193;53.980;13.902;2024-03-22T06:26:06;16.13;;;7.78;;
84931;SDS011;75193;53.980;13.902;2024-03-22T06:28:31;13.38;;;7.53;;
84931;SDS011;75193;53.980;13.902;2024-03-22T06:30:57;12.77;;;7.63;;
84931;SDS011;75193;53.980;13.902;2024-03-22T06:33:22;13.27;;;7.75;;
84931;SDS011;75193;53.980;13.902;2024-03-22T06:35:48;16.90;;;9.18;;
84931;SDS011;75193;53.980;13.902;2024-03-22T06:38:13;16.42;;;8.60;;
84931;SDS011;75193;53.980;13.902;2024-03-22T06:40:39;17.25;;;8.32;;
84931;SDS011;75193;53.980;13.902;2024-03-22T06:43:04;15.13;;;7.93;;
84931;SDS011;75193;53.980;13.902;2024-03-22T06:45:29;16.20;;;8.57;;
84931;SDS011;75193;53.980;13.902;2024-03-22T06:50:20;13.23;;;7.88;;
84931;SDS011;75193;53.980;13.902;2024-03-22T06:52:52;16.15;;;9.00;;
84931;SDS011;75193;53.980;13.902;2024-03-22T06:58:05;17.75;;;8.52;;
84931;SDS011;75193;53.980;13.902;2024-03-22T07:00:31;16.00;;;9.13;;
84931;SDS011;75193;53.980;13.902;2024-03-22T07:02:59;16.65;;;9.05;;
84931;SDS011;75193;53.980;13.902;2024-03-22T07:05:27;17.23;;;9.57;;
84931;SDS011;75193;53.980;13.902;2024-03-22T07:10:21;16.67;;;7.95;;
84931;SDS011;75193;53.980;13.902;2024-03-22T07:12:47;17.67;;;9.77;;
84931;SDS011;75193;53.980;13.902;2024-03-22T07:15:13;17.02;;;9.57;;
84931;SDS011;75193;53.980;13.902;2024-03-22T07:17:38;18.23;;;8.52;;
84931;SDS011;75193;53.980;13.902;2024-03-22T07:20:04;17.10;;;9.48;;
84931;SDS011;75193;53.980;13.902;2024-03-22T07:22:30;17.67;;;10.18;;
84931;SDS011;75193;53.980;13.902;2024-03-22T07:24:55;17.50;;;9.38;;
84931;SDS011;75193;53.980;13.902;2024-03-22T07:27:20;17.85;;;9.95;;
84931;SDS011;75193;53.980;13.902;2024-03-22T07:29:46;17.55;;;10.00;;
84931;SDS011;75193;53.980;13.902;2024-03-22T07:32:11;17.55;;;9.23;;
84931;SDS011;75193;53.980;13.902;2024-03-22T07:34:37;16.55;;;9.30;;
84931;SDS011;75193;53.980;13.902;2024-03-22T07:37:02;16.98;;;8.98;;
84931;SDS011;75193;53.980;13.902;2024-03-22T07:39:29;21.52;;;10.27;;
84931;SDS011;75193;53.980;13.902;2024-03-22T07:41:55;20.33;;;12.05;;
84931;SDS011;75193;53.980;13.902;2024-03-22T07:44:20;16.17;;;8.18;;
84931;SDS011;75193;53.980;13.902;2024-03-22T07:46:46;20.52;;;10.10;;
84931;SDS011;75193;53.980;13.902;2024-03-22T07:49:14;20.38;;;10.23;;
84931;SDS011;75193;53.980;13.902;2024-03-22T07:51:40;18.63;;;9.82;;
84931;SDS011;75193;53.980;13.902;2024-03-22T07:54:05;20.17;;;10.75;;
84931;SDS011;75193;53.980;13.902;2024-03-22T07:56:31;18.45;;;11.02;;
84931;SDS011;75193;53.980;13.902;2024-03-22T07:58:56;21.30;;;11.77;;
84931;SDS011;75193;53.980;13.902;2024-03-22T08:01:22;17.73;;;10.20;;
84931;SDS011;75193;53.980;13.902;2024-03-22T08:06:13;16.45;;;9.88;;
84931;SDS011;75193;53.980;13.902;2024-03-22T08:08:39;19.85;;;11.07;;
84931;SDS011;75193;53.980;13.902;2024-03-22T08:11:04;18.73;;;10.50;;
84931;SDS011;75193;53.980;13.902;2024-03-22T08:13:30;18.55;;;10.77;;
84931;SDS011;75193;53.980;13.902;2024-03-22T08:15:55;21.10;;;12.32;;
84931;SDS011;75193;53.980;13.902;2024-03-22T08:18:21;26.88;;;13.00;;
84931;SDS011;75193;53.980;13.902;2024-03-22T08:20:46;22.95;;;11.88;;
84931;SDS011;75193;53.980;13.902;2024-03-22T08:23:12;21.48;;;12.35;;
84931;SDS011;75193;53.980;13.902;2024-03-22T08:25:37;19.30;;;11.15;;
84931;SDS011;75193;53.980;13.902;2024-03-22T08:28:03;18.48;;;11.32;;
84931;SDS011;75193;53.980;13.902;2024-03-22T08:30:29;23.10;;;13.57;;
84931;SDS011;75193;53.980;13.902;2024-03-22T08:32:54;24.17;;;13.27;;
84931;SDS011;75193;53.980;13.902;2024-03-22T08:35:20;24.35;;;14.00;;
84931;SDS011;75193;53.980;13.902;2024-03-22T08:37:45;23.30;;;13.18;;
84931;SDS011;75193;53.980;13.902;2024-03-22T08:40:11;24.98;;;13.40;;
84931;SDS011;75193;53.980;13.902;2024-03-22T08:42:37;22.42;;;12.70;;
84931;SDS011;75193;53.980;13.902;2024-03-22T08:45:03;21.23;;;12.63;;
84931;SDS011;75193;53.980;13.902;2024-03-22T08:47:29;24.40;;;13.13;;
84931;SDS011;75193;53.980;13.902;2024-03-22T08:49:55;26.27;;;13.93;;
84931;SDS011;75193;53.980;13.902;2024-03-22T08:52:22;20.90;;;12.57;;
84931;SDS011;75193;53.980;13.902;2024-03-22T08:54:49;21.50;;;12.90;;
84931;SDS011;75193;53.980;13.902;2024-03-22T08:57:15;23.33;;;13.48;;
84931;SDS011;75193;53.980;13.902;2024-03-22T08:59:41;23.05;;;13.88;;
84931;SDS011;75193;53.980;13.902;2024-03-22T09:02:06;25.02;;;13.90;;
84931;SDS011;75193;53.980;13.902;2024-03-22T09:04:31;26.20;;;12.85;;
84931;SDS011;75193;53.980;13.902;2024-03-22T09:06:57;19.67;;;10.70;;
84931;SDS011;75193;53.980;13.902;2024-03-22T09:09:23;25.38;;;13.68;;
84931;SDS011;75193;53.980;13.902;2024-03-22T09:11:49;24.23;;;12.18;;
84931;SDS011;75193;53.980;13.902;2024-03-22T09:14:14;23.80;;;13.60;;
84931;SDS011;75193;53.980;13.902;2024-03-22T09:16:39;19.15;;;11.18;;
84931;SDS011;75193;53.980;13.902;2024-03-22T09:21:31;23.90;;;13.65;;
84931;SDS011;75193;53.980;13.902;2024-03-22T09:23:57;20.23;;;10.60;;
84931;SDS011;75193;53.980;13.902;2024-03-22T09:26:22;25.95;;;13.52;;
84931;SDS011;75193;53.980;13.902;2024-03-22T09:31:15;23.83;;;13.60;;
84931;SDS011;75193;53.980;13.902;2024-03-22T09:33:41;22.05;;;12.88;;
84931;SDS011;75193;53.980;13.902;2024-03-22T09:36:07;25.45;;;14.35;;
84931;SDS011;75193;53.980;13.902;2024-03-22T09:38:33;23.80;;;13.35;;
84931;SDS011;75193;53.980;13.902;2024-03-22T09:40:58;20.38;;;11.88;;
84931;SDS011;75193;53.980;13.902;2024-03-22T09:43:24;20.65;;;13.00;;
84931;SDS011;75193;53.980;13.902;2024-03-22T09:45:52;22.73;;;12.82;;
84931;SDS011;75193;53.980;13.902;2024-03-22T09:48:18;23.67;;;12.07;;
84931;SDS011;75193;53.980;13.902;2024-03-22T09:50:47;26.90;;;14.27;;
84931;SDS011;75193;53.980;13.902;2024-03-22T09:53:17;22.77;;;12.90;;
84931;SDS011;75193;53.980;13.902;2024-03-22T09:55:44;23.27;;;13.93;;
84931;SDS011;75193;53.980;13.902;2024-03-22T09:58:10;25.77;;;13.65;;
84931;SDS011;75193;53.980;13.902;2024-03-22T10:03:04;25.67;;;14.93;;
84931;SDS011;75193;53.980;13.902;2024-03-22T10:05:30;26.63;;;16.13;;
84931;SDS011;75193;53.980;13.902;2024-03-22T10:07:56;27.50;;;15.55;;
84931;SDS011;75193;53.980;13.902;2024-03-22T10:10:22;20.17;;;13.05;;
84931;SDS011;75193;53.980;13.902;2024-03-22T10:15:13;23.25;;;12.48;;
84931;SDS011;75193;53.980;13.902;2024-03-22T10:20:05;24.23;;;11.88;;
84931;SDS011;75193;53.980;13.902;2024-03-22T10:22:43;25.10;;;13.55;;
84931;SDS011;75193;53.980;13.902;2024-03-22T10:25:13;25.40;;;14.68;;
84931;SDS011;75193;53.980;13.902;2024-03-22T10:30:06;27.45;;;14.48;;
84931;SDS011;75193;53.980;13.902;2024-03-22T10:32:33;29.40;;;16.02;;
84931;SDS011;75193;53.980;13.902;2024-03-22T10:35:00;18.40;;;10.23;;
84931;SDS011;75193;53.980;13.902;2024-03-22T10:37:34;30.27;;;16.67;;
84931;SDS011;75193;53.980;13.902;2024-03-22T10:40:03;30.55;;;15.13;;
84931;SDS011;75193;53.980;13.902;2024-03-22T10:42:37;29.05;;;14.57;;
84931;SDS011;75193;53.980;13.902;2024-03-22T10:45:10;23.08;;;13.82;;
84931;SDS011;75193;53.980;13.902;2024-03-22T10:47:37;28.48;;;14.93;;
84931;SDS011;75193;53.980;13.902;2024-03-22T10:52:39;28.38;;;15.90;;
84931;SDS011;75193;53.980;13.902;2024-03-22T10:55:13;31.17;;;18.10;;
84931;SDS011;75193;53.980;13.902;2024-03-22T10:58:06;28.20;;;15.52;;
84931;SDS011;75193;53.980;13.902;2024-03-22T11:02:58;31.73;;;17.88;;
84931;SDS011;75193;53.980;13.902;2024-03-22T11:08:03;32.03;;;18.20;;
84931;SDS011;75193;53.980;13.902;2024-03-22T11:10:30;25.45;;;14.55;;
84931;SDS011;75193;53.980;13.902;2024-03-22T11:13:05;29.65;;;15.98;;
84931;SDS011;75193;53.980;13.902;2024-03-22T11:15:32;34.92;;;18.67;;
84931;SDS011;75193;53.980;13.902;2024-03-22T11:17:58;36.60;;;19.50;;
84931;SDS011;75193;53.980;13.902;2024-03-22T11:20:25;33.15;;;17.17;;
84931;SDS011;75193;53.980;13.902;2024-03-22T11:22:51;28.92;;;15.68;;
84931;SDS011;75193;53.980;13.902;2024-03-22T11:25:17;30.45;;;17.15;;
84931;SDS011;75193;53.980;13.902;2024-03-22T11:27:44;31.00;;;17.77;;
84931;SDS011;75193;53.980;13.902;2024-03-22T11:32:35;27.20;;;14.65;;
84931;SDS011;75193;53.980;13.902;2024-03-22T11:35:12;28.45;;;16.35;;
84931;SDS011;75193;53.980;13.902;2024-03-22T11:37:38;38.80;;;21.05;;
84931;SDS011;75193;53.980;13.902;2024-03-22T11:40:04;36.45;;;19.92;;
84931;SDS011;75193;53.980;13.902;2024-03-22T11:42:32;39.88;;;20.92;;
84931;SDS011;75193;53.980;13.902;2024-03-22T11:44:59;41.05;;;19.38;;
84931;SDS011;75193;53.980;13.902;2024-03-22T11:47:25;33.88;;;16.83;;
84931;SDS011;75193;53.980;13.902;2024-03-22T11:52:16;38.13;;;18.13;;
84931;SDS011;75193;53.980;13.902;2024-03-22T11:57:08;48.40;;;22.60;;
84931;SDS011;75193;53.980;13.902;2024-03-22T11:59:34;39.05;;;20.52;;
84931;SDS011;75193;53.980;13.902;2024-03-22T12:04:24;49.50;;;21.55;;
84931;SDS011;75193;53.980;13.902;2024-03-22T12:06:50;41.50;;;19.98;;
84931;SDS011;75193;53.980;13.902;2024-03-22T12:11:41;36.83;;;18.10;;
84931;SDS011;75193;53.980;13.902;2024-03-22T12:16:31;30.70;;;14.25;;
84931;SDS011;75193;53.980;13.902;2024-03-22T12:21:22;39.20;;;19.83;;
84931;SDS011;75193;53.980;13.902;2024-03-22T12:23:48;33.55;;;18.38;;
84931;SDS011;75193;53.980;13.902;2024-03-22T12:28:39;34.90;;;17.83;;
84931;SDS011;75193;53.980;13.902;2024-03-22T12:33:30;31.40;;;17.25;;
84931;SDS011;75193;53.980;13.902;2024-03-22T12:38:21;35.55;;;16.33;;
84931;SDS011;75193;53.980;13.902;2024-03-22T12:43:11;36.97;;;18.13;;
84931;SDS011;75193;53.980;13.902;2024-03-22T12:48:02;35.88;;;18.45;;
84931;SDS011;75193;53.980;13.902;2024-03-22T12:50:29;37.95;;;19.40;;
84931;SDS011;75193;53.980;13.902;2024-03-22T12:52:55;41.05;;;19.85;;
84931;SDS011;75193;53.980;13.902;2024-03-22T12:57:46;36.25;;;17.25;;
84931;SDS011;75193;53.980;13.902;2024-03-22T13:02:43;36.67;;;19.27;;
84931;SDS011;75193;53.980;13.902;2024-03-22T13:05:10;33.00;;;17.75;;
84931;SDS011;75193;53.980;13.902;2024-03-22T13:10:01;39.08;;;18.05;;
84931;SDS011;75193;53.980;13.902;2024-03-22T13:14:53;36.08;;;18.98;;
84931;SDS011;75193;53.980;13.902;2024-03-22T13:17:19;39.83;;;20.25;;
84931;SDS011;75193;53.980;13.902;2024-03-22T13:22:11;39.10;;;20.52;;
84931;SDS011;75193;53.980;13.902;2024-03-22T13:24:37;33.67;;;18.02;;
84931;SDS011;75193;53.980;13.902;2024-03-22T13:29:28;37.17;;;18.37;;
84931;SDS011;75193;53.980;13.902;2024-03-22T13:31:54;39.10;;;18.95;;
84931;SDS011;75193;53.980;13.902;2024-03-22T13:36:45;40.50;;;19.08;;
84931;SDS011;75193;53.980;13.902;2024-03-22T13:41:36;34.00;;;17.67;;
84931;SDS011;75193;53.980;13.902;2024-03-22T13:46:28;32.92;;;16.90;;
84931;SDS011;75193;53.980;13.902;2024-03-22T13:51:19;33.80;;;16.35;;
84931;SDS011;75193;53.980;13.902;2024-03-22T13:53:46;38.70;;;19.00;;
84931;SDS011;75193;53.980;13.902;2024-03-22T13:56:11;36.72;;;17.60;;
84931;SDS011;75193;53.980;13.902;2024-03-22T14:01:03;44.85;;;18.13;;
84931;SDS011;75193;53.980;13.902;2024-03-22T14:03:31;34.58;;;16.73;;
84931;SDS011;75193;53.980;13.902;2024-03-22T14:08:22;30.13;;;15.40;;
84931;SDS011;75193;53.980;13.902;2024-03-22T14:13:13;30.33;;;16.03;;
84931;SDS011;75193;53.980;13.902;2024-03-22T14:15:40;29.13;;;15.32;;
84931;SDS011;75193;53.980;13.902;2024-03-22T14:20:30;29.33;;;15.83;;
84931;SDS011;75193;53.980;13.902;2024-03-22T14:25:21;34.03;;;15.80;;
84931;SDS011;75193;53.980;13.902;2024-03-22T14:30:12;32.10;;;15.93;;
84931;SDS011;75193;53.980;13.902;2024-03-22T14:32:39;32.45;;;16.00;;
84931;SDS011;75193;53.980;13.902;2024-03-22T14:35:08;29.80;;;16.58;;
84931;SDS011;75193;53.980;13.902;2024-03-22T14:37:34;33.90;;;17.52;;
84931;SDS011;75193;53.980;13.902;2024-03-22T14:42:25;33.30;;;15.60;;
84931;SDS011;75193;53.980;13.902;2024-03-22T14:47:16;26.98;;;14.07;;
84931;SDS011;75193;53.980;13.902;2024-03-22T14:52:07;30.65;;;13.80;;
84931;SDS011;75193;53.980;13.902;2024-03-22T14:54:34;34.85;;;15.93;;
84931;SDS011;75193;53.980;13.902;2024-03-22T14:59:28;32.97;;;16.13;;
84931;SDS011;75193;53.980;13.902;2024-03-22T15:01:54;25.30;;;14.23;;
84931;SDS011;75193;53.980;13.902;2024-03-22T15:04:20;32.17;;;16.25;;
84931;SDS011;75193;53.980;13.902;2024-03-22T15:09:12;35.55;;;17.67;;
84931;SDS011;75193;53.980;13.902;2024-03-22T15:14:03;33.30;;;17.77;;
84931;SDS011;75193;53.980;13.902;2024-03-22T15:16:29;35.63;;;18.05;;
84931;SDS011;75193;53.980;13.902;2024-03-22T15:18:55;35.22;;;17.35;;
84931;SDS011;75193;53.980;13.902;2024-03-22T15:21:21;36.28;;;18.55;;
84931;SDS011;75193;53.980;13.902;2024-03-22T15:26:12;37.47;;;18.07;;
84931;SDS011;75193;53.980;13.902;2024-03-22T15:31:03;29.67;;;14.57;;
84931;SDS011;75193;53.980;13.902;2024-03-22T15:33:28;38.22;;;16.55;;
84931;SDS011;75193;53.980;13.902;2024-03-22T15:38:19;36.63;;;14.90;;
84931;SDS011;75193;53.980;13.902;2024-03-22T15:40:45;39.03;;;18.73;;
84931;SDS011;75193;53.980;13.902;2024-03-22T15:43:12;36.10;;;18.25;;
84931;SDS011;75193;53.980;13.902;2024-03-22T15:45:38;32.20;;;16.50;;
84931;SDS011;75193;53.980;13.902;2024-03-22T15:48:06;45.40;;;17.48;;
84931;SDS011;75193;53.980;13.902;2024-03-22T15:50:33;42.50;;;17.80;;
84931;SDS011;75193;53.980;13.902;2024-03-22T15:52:59;44.50;;;18.52;;
84931;SDS011;75193;53.980;13.902;2024-03-22T15:55:25;35.78;;;16.92;;
84931;SDS011;75193;53.980;13.902;2024-03-22T15:57:50;42.78;;;18.40;;
84931;SDS011;75193;53.980;13.902;2024-03-22T16:00:20;40.90;;;17.52;;
84931;SDS011;75193;53.980;13.902;2024-03-22T16:02:46;32.80;;;14.63;;
84931;SDS011;75193;53.980;13.902;2024-03-22T16:05:13;40.88;;;16.77;;
84931;SDS011;75193;53.980;13.902;2024-03-22T16:07:41;40.22;;;16.88;;
84931;SDS011;75193;53.980;13.902;2024-03-22T16:10:07;36.10;;;17.33;;
84931;SDS011;75193;53.980;13.902;2024-03-22T16:12:34;34.83;;;16.05;;
84931;SDS011;75193;53.980;13.902;2024-03-22T16:17:24;27.85;;;13.00;;
84931;SDS011;75193;53.980;13.902;2024-03-22T16:19:51;31.83;;;15.05;;
84931;SDS011;75193;53.980;13.902;2024-03-22T16:24:42;28.00;;;13.53;;
84931;SDS011;75193;53.980;13.902;2024-03-22T16:27:07;28.40;;;13.77;;
84931;SDS011;75193;53.980;13.902;2024-03-22T16:29:32;25.17;;;12.57;;
84931;SDS011;75193;53.980;13.902;2024-03-22T16:34:23;24.57;;;11.37;;
84931;SDS011;75193;53.980;13.902;2024-03-22T16:39:13;20.63;;;9.07;;